sensor_id;sensor_type;location;lat;lon;timestamp;P1;durP1;ratioP1;P2;durP2;ratioP2
3225;SDS011;1625;49.884;8.666;2022-08-01T00:00:40;2.90;;;2.70;;
3225;SDS011;1625;49.884;8.666;2022-08-01T00:03:06;3.03;;;2.80;;
3225;SDS011;1625;49.884;8.666;2022-08-01T00:05:32;2.70;;;2.50;;
3225;SDS011;1625;49.884;8.666;2022-08-01T00:07:57;3.13;;;2.80;;
3225;SDS011;1625;49.884;8.666;2022-08-01T00:10:23;2.70;;;2.50;;
3225;SDS011;1625;49.884;8.666;2022-08-01T00:12:49;3.70;;;3.40;;
3225;SDS011;1625;49.884;8.666;2022-08-01T00:15:15;3.90;;;2.80;;
3225;SDS011;1625;49.884;8.666;2022-08-01T00:17:42;2.60;;;2.40;;
3225;SDS011;1625;49.884;8.666;2022-08-01T00:20:11;2.90;;;2.70;;
3225;SDS011;1625;49.884;8.666;2022-08-01T00:22:38;3.20;;;2.47;;
3225;SDS011;1625;49.884;8.666;2022-08-01T00:25:04;3.30;;;2.97;;
3225;SDS011;1625;49.884;8.666;2022-08-01T00:27:30;3.23;;;2.90;;
3225;SDS011;1625;49.884;8.666;2022-08-01T00:29:56;2.50;;;2.30;;
3225;SDS011;1625;49.884;8.666;2022-08-01T00:32:22;7.17;;;2.77;;
3225;SDS011;1625;49.884;8.666;2022-08-01T00:34:48;2.37;;;2.27;;
3225;SDS011;1625;49.884;8.666;2022-08-01T00:37:13;2.83;;;2.60;;
3225;SDS011;1625;49.884;8.666;2022-08-01T00:39:39;2.60;;;2.40;;
3225;SDS011;1625;49.884;8.666;2022-08-01T00:42:08;3.10;;;2.60;;
3225;SDS011;1625;49.884;8.666;2022-08-01T00:44:35;2.87;;;2.57;;
3225;SDS011;1625;49.884;8.666;2022-08-01T00:47:01;2.63;;;2.43;;
3225;SDS011;1625;49.884;8.666;2022-08-01T00:49:28;2.90;;;2.30;;
3225;SDS011;1625;49.884;8.666;2022-08-01T00:51:54;2.60;;;2.40;;
3225;SDS011;1625;49.884;8.666;2022-08-01T04:03:22;2.77;;;1.90;;
3225;SDS011;1625;49.884;8.666;2022-08-01T04:05:48;2.30;;;2.10;;
3225;SDS011;1625;49.884;8.666;2022-08-01T04:08:15;2.23;;;1.53;;
3225;SDS011;1625;49.884;8.666;2022-08-01T04:10:41;2.30;;;2.00;;
3225;SDS011;1625;49.884;8.666;2022-08-01T04:13:06;2.53;;;2.10;;
3225;SDS011;1625;49.884;8.666;2022-08-01T06:40:46;2.80;;;2.10;;
3225;SDS011;1625;49.884;8.666;2022-08-01T06:43:36;2.80;;;2.20;;
3225;SDS011;1625;49.884;8.666;2022-08-01T06:46:30;4.30;;;2.20;;
3225;SDS011;1625;49.884;8.666;2022-08-01T06:48:56;3.10;;;2.63;;
3225;SDS011;1625;49.884;8.666;2022-08-01T06:51:25;3.60;;;1.80;;
3225;SDS011;1625;49.884;8.666;2022-08-01T06:56:18;2.97;;;2.57;;
3225;SDS011;1625;49.884;8.666;2022-08-01T06:58:44;3.17;;;2.40;;
3225;SDS011;1625;49.884;8.666;2022-08-01T07:01:10;2.50;;;2.30;;
3225;SDS011;1625;49.884;8.666;2022-08-01T07:03:36;3.07;;;2.67;;
3225;SDS011;1625;49.884;8.666;2022-08-01T07:06:02;2.73;;;2.53;;
3225;SDS011;1625;49.884;8.666;2022-08-01T07:08:28;2.97;;;2.77;;
3225;SDS011;1625;49.884;8.666;2022-08-01T07:10:54;2.87;;;2.67;;
3225;SDS011;1625;49.884;8.666;2022-08-01T07:13:20;3.13;;;2.80;;
3225;SDS011;1625;49.884;8.666;2022-08-01T07:15:49;2.80;;;2.60;;
3225;SDS011;1625;49.884;8.666;2022-08-01T07:18:15;2.57;;;2.37;;
3225;SDS011;1625;49.884;8.666;2022-08-01T07:20:41;3.50;;;2.70;;
3225;SDS011;1625;49.884;8.666;2022-08-01T07:23:06;3.20;;;2.90;;
3225;SDS011;1625;49.884;8.666;2022-08-01T07:25:32;2.80;;;2.60;;
3225;SDS011;1625;49.884;8.666;2022-08-01T07:27:57;4.80;;;2.63;;
3225;SDS011;1625;49.884;8.666;2022-08-01T07:30:23;3.10;;;2.80;;
3225;SDS011;1625;49.884;8.666;2022-08-01T07:32:49;3.40;;;3.10;;
3225;SDS011;1625;49.884;8.666;2022-08-01T07:35:14;3.77;;;2.60;;
3225;SDS011;1625;49.884;8.666;2022-08-01T07:37:40;7.57;;;5.60;;
3225;SDS011;1625;49.884;8.666;2022-08-01T07:40:06;4.57;;;4.17;;
3225;SDS011;1625;49.884;8.666;2022-08-01T07:42:31;5.00;;;4.50;;
3225;SDS011;1625;49.884;8.666;2022-08-01T07:44:57;4.60;;;3.70;;
3225;SDS011;1625;49.884;8.666;2022-08-01T07:47:26;7.10;;;4.97;;
3225;SDS011;1625;49.884;8.666;2022-08-01T07:49:52;3.40;;;3.10;;
3225;SDS011;1625;49.884;8.666;2022-08-01T07:52:24;3.03;;;2.83;;
3225;SDS011;1625;49.884;8.666;2022-08-01T07:54:52;3.50;;;3.20;;
3225;SDS011;1625;49.884;8.666;2022-08-01T07:57:18;4.20;;;2.40;;
3225;SDS011;1625;49.884;8.666;2022-08-01T07:59:44;2.63;;;2.43;;
3225;SDS011;1625;49.884;8.666;2022-08-01T08:02:10;3.20;;;2.87;;
3225;SDS011;1625;49.884;8.666;2022-08-01T08:04:35;2.73;;;2.53;;
3225;SDS011;1625;49.884;8.666;2022-08-01T08:07:01;3.70;;;3.10;;
3225;SDS011;1625;49.884;8.666;2022-08-01T08:09:27;3.00;;;2.70;;
3225;SDS011;1625;49.884;8.666;2022-08-01T08:11:52;2.90;;;2.70;;
3225;SDS011;1625;49.884;8.666;2022-08-01T08:14:18;3.10;;;2.90;;
3225;SDS011;1625;49.884;8.666;2022-08-01T08:16:44;2.93;;;2.47;;
3225;SDS011;1625;49.884;8.666;2022-08-01T08:19:10;2.63;;;2.40;;
3225;SDS011;1625;49.884;8.666;2022-08-01T08:21:36;3.30;;;3.10;;
3225;SDS011;1625;49.884;8.666;2022-08-01T08:24:02;5.60;;;3.17;;
3225;SDS011;1625;49.884;8.666;2022-08-01T08:26:47;3.27;;;3.03;;
3225;SDS011;1625;49.884;8.666;2022-08-01T08:29:16;5.87;;;3.57;;
3225;SDS011;1625;49.884;8.666;2022-08-01T08:31:42;27.50;;;7.37;;
3225;SDS011;1625;49.884;8.666;2022-08-01T08:34:08;4.00;;;2.80;;
3225;SDS011;1625;49.884;8.666;2022-08-01T08:36:33;4.10;;;2.80;;
3225;SDS011;1625;49.884;8.666;2022-08-01T08:38:59;2.90;;;2.57;;
3225;SDS011;1625;49.884;8.666;2022-08-01T08:41:25;4.73;;;2.77;;
3225;SDS011;1625;49.884;8.666;2022-08-01T08:43:53;5.03;;;2.77;;
3225;SDS011;1625;49.884;8.666;2022-08-01T08:46:21;4.23;;;3.00;;
3225;SDS011;1625;49.884;8.666;2022-08-01T08:48:48;3.20;;;2.90;;
3225;SDS011;1625;49.884;8.666;2022-08-01T08:51:13;3.23;;;2.97;;
3225;SDS011;1625;49.884;8.666;2022-08-01T08:53:42;4.13;;;2.60;;
3225;SDS011;1625;49.884;8.666;2022-08-01T08:56:10;3.70;;;3.27;;
3225;SDS011;1625;49.884;8.666;2022-08-01T08:58:38;11.50;;;3.57;;
3225;SDS011;1625;49.884;8.666;2022-08-01T09:01:06;2.97;;;2.60;;
3225;SDS011;1625;49.884;8.666;2022-08-01T09:03:33;4.10;;;2.63;;
3225;SDS011;1625;49.884;8.666;2022-08-01T09:05:59;6.93;;;3.40;;
3225;SDS011;1625;49.884;8.666;2022-08-01T09:08:25;3.90;;;3.43;;
3225;SDS011;1625;49.884;8.666;2022-08-01T09:10:51;3.30;;;3.00;;
3225;SDS011;1625;49.884;8.666;2022-08-01T09:13:16;2.80;;;2.60;;
3225;SDS011;1625;49.884;8.666;2022-08-01T09:15:43;4.10;;;3.70;;
3225;SDS011;1625;49.884;8.666;2022-08-01T09:18:27;4.10;;;3.00;;
3225;SDS011;1625;49.884;8.666;2022-08-01T09:21:07;4.50;;;4.10;;
3225;SDS011;1625;49.884;8.666;2022-08-01T09:23:41;3.47;;;3.17;;
3225;SDS011;1625;49.884;8.666;2022-08-01T09:26:09;2.90;;;2.70;;
3225;SDS011;1625;49.884;8.666;2022-08-01T09:28:35;2.67;;;2.47;;
3225;SDS011;1625;49.884;8.666;2022-08-01T09:31:05;10.60;;;3.50;;
3225;SDS011;1625;49.884;8.666;2022-08-01T09:36:16;3.93;;;2.63;;
3225;SDS011;1625;49.884;8.666;2022-08-01T09:38:42;2.87;;;2.50;;
3225;SDS011;1625;49.884;8.666;2022-08-01T09:41:08;3.10;;;2.80;;
3225;SDS011;1625;49.884;8.666;2022-08-01T09:43:33;2.47;;;2.27;;
3225;SDS011;1625;49.884;8.666;2022-08-01T09:46:02;2.90;;;2.40;;
3225;SDS011;1625;49.884;8.666;2022-08-01T09:48:30;3.33;;;2.70;;
3225;SDS011;1625;49.884;8.666;2022-08-01T09:50:58;2.70;;;2.50;;
3225;SDS011;1625;49.884;8.666;2022-08-01T09:53:24;3.30;;;3.10;;
3225;SDS011;1625;49.884;8.666;2022-08-01T09:55:50;2.90;;;2.70;;
3225;SDS011;1625;49.884;8.666;2022-08-01T09:58:17;4.23;;;2.80;;
3225;SDS011;1625;49.884;8.666;2022-08-01T10:00:44;3.60;;;2.90;;
3225;SDS011;1625;49.884;8.666;2022-08-01T10:03:25;2.90;;;2.40;;
3225;SDS011;1625;49.884;8.666;2022-08-01T10:05:51;2.83;;;2.63;;
3225;SDS011;1625;49.884;8.666;2022-08-01T10:08:22;2.93;;;2.60;;
3225;SDS011;1625;49.884;8.666;2022-08-01T10:11:09;3.10;;;2.57;;
3225;SDS011;1625;49.884;8.666;2022-08-01T10:13:36;3.27;;;2.73;;
3225;SDS011;1625;49.884;8.666;2022-08-01T10:16:02;2.77;;;2.47;;
3225;SDS011;1625;49.884;8.666;2022-08-01T10:18:31;3.20;;;2.90;;
3225;SDS011;1625;49.884;8.666;2022-08-01T10:21:00;3.07;;;2.87;;
3225;SDS011;1625;49.884;8.666;2022-08-01T10:23:27;2.73;;;2.53;;
3225;SDS011;1625;49.884;8.666;2022-08-01T10:25:58;3.03;;;2.83;;
3225;SDS011;1625;49.884;8.666;2022-08-01T10:28:25;2.60;;;2.40;;
3225;SDS011;1625;49.884;8.666;2022-08-01T10:30:54;3.30;;;2.30;;
3225;SDS011;1625;49.884;8.666;2022-08-01T10:33:22;2.90;;;2.70;;
3225;SDS011;1625;49.884;8.666;2022-08-01T10:35:48;2.87;;;2.67;;
3225;SDS011;1625;49.884;8.666;2022-08-01T10:38:15;2.87;;;2.67;;
3225;SDS011;1625;49.884;8.666;2022-08-01T10:40:42;3.20;;;2.90;;
3225;SDS011;1625;49.884;8.666;2022-08-01T10:43:11;4.33;;;3.20;;
3225;SDS011;1625;49.884;8.666;2022-08-01T10:45:37;4.80;;;3.00;;
3225;SDS011;1625;49.884;8.666;2022-08-01T10:53:08;2.90;;;2.70;;
3225;SDS011;1625;49.884;8.666;2022-08-01T10:55:48;2.70;;;2.50;;
3225;SDS011;1625;49.884;8.666;2022-08-01T10:58:26;3.00;;;2.70;;
3225;SDS011;1625;49.884;8.666;2022-08-01T11:03:55;3.87;;;3.50;;
3225;SDS011;1625;49.884;8.666;2022-08-01T11:08:58;3.00;;;2.70;;
3225;SDS011;1625;49.884;8.666;2022-08-01T11:11:25;2.87;;;2.60;;
3225;SDS011;1625;49.884;8.666;2022-08-01T11:19:15;2.20;;;2.00;;
3225;SDS011;1625;49.884;8.666;2022-08-01T11:27:16;2.70;;;2.50;;
3225;SDS011;1625;49.884;8.666;2022-08-01T11:30:23;3.17;;;2.63;;
3225;SDS011;1625;49.884;8.666;2022-08-01T11:35:16;3.70;;;2.30;;
3225;SDS011;1625;49.884;8.666;2022-08-01T11:37:42;2.70;;;2.50;;
3225;SDS011;1625;49.884;8.666;2022-08-01T11:40:24;3.73;;;2.07;;
3225;SDS011;1625;49.884;8.666;2022-08-01T11:43:16;2.30;;;2.10;;
3225;SDS011;1625;49.884;8.666;2022-08-01T11:45:46;5.83;;;2.77;;
3225;SDS011;1625;49.884;8.666;2022-08-01T11:48:20;9.93;;;3.50;;
3225;SDS011;1625;49.884;8.666;2022-08-01T11:50:51;2.83;;;2.60;;
3225;SDS011;1625;49.884;8.666;2022-08-01T11:53:18;4.30;;;2.77;;
3225;SDS011;1625;49.884;8.666;2022-08-01T11:55:51;2.30;;;2.10;;
3225;SDS011;1625;49.884;8.666;2022-08-01T11:58:22;2.77;;;2.40;;
3225;SDS011;1625;49.884;8.666;2022-08-01T12:00:52;2.47;;;2.27;;
3225;SDS011;1625;49.884;8.666;2022-08-01T12:03:26;2.53;;;2.33;;
3225;SDS011;1625;49.884;8.666;2022-08-01T12:05:53;3.10;;;2.50;;
3225;SDS011;1625;49.884;8.666;2022-08-01T12:11:01;4.43;;;2.43;;
3225;SDS011;1625;49.884;8.666;2022-08-01T12:13:38;2.60;;;2.40;;
3225;SDS011;1625;49.884;8.666;2022-08-01T12:16:08;2.43;;;2.23;;
3225;SDS011;1625;49.884;8.666;2022-08-01T12:18:38;2.40;;;2.20;;
3225;SDS011;1625;49.884;8.666;2022-08-01T12:21:05;2.53;;;2.00;;
3225;SDS011;1625;49.884;8.666;2022-08-01T12:23:31;2.37;;;2.17;;
3225;SDS011;1625;49.884;8.666;2022-08-01T12:25:56;1.90;;;1.80;;
3225;SDS011;1625;49.884;8.666;2022-08-01T12:28:22;2.90;;;2.37;;
3225;SDS011;1625;49.884;8.666;2022-08-01T12:30:48;2.80;;;2.60;;
3225;SDS011;1625;49.884;8.666;2022-08-01T12:33:16;2.20;;;2.00;;
3225;SDS011;1625;49.884;8.666;2022-08-01T12:35:43;2.33;;;2.13;;
3225;SDS011;1625;49.884;8.666;2022-08-01T12:38:20;3.03;;;2.10;;
3225;SDS011;1625;49.884;8.666;2022-08-01T12:40:52;2.90;;;2.20;;
3225;SDS011;1625;49.884;8.666;2022-08-01T12:43:18;2.23;;;2.07;;
3225;SDS011;1625;49.884;8.666;2022-08-01T12:45:45;2.30;;;2.10;;
3225;SDS011;1625;49.884;8.666;2022-08-01T12:48:15;3.63;;;2.30;;
3225;SDS011;1625;49.884;8.666;2022-08-01T12:50:43;3.00;;;2.20;;
3225;SDS011;1625;49.884;8.666;2022-08-01T12:53:10;2.10;;;2.00;;
3225;SDS011;1625;49.884;8.666;2022-08-01T12:55:44;2.33;;;1.97;;
3225;SDS011;1625;49.884;8.666;2022-08-01T12:58:14;2.30;;;2.13;;
3225;SDS011;1625;49.884;8.666;2022-08-01T13:00:44;5.53;;;4.40;;
3225;SDS011;1625;49.884;8.666;2022-08-01T13:03:12;2.93;;;2.60;;
3225;SDS011;1625;49.884;8.666;2022-08-01T13:05:46;5.07;;;3.43;;
3225;SDS011;1625;49.884;8.666;2022-08-01T13:08:20;3.43;;;3.13;;
3225;SDS011;1625;49.884;8.666;2022-08-01T13:10:47;2.40;;;2.20;;
3225;SDS011;1625;49.884;8.666;2022-08-01T13:13:14;3.47;;;2.23;;
3225;SDS011;1625;49.884;8.666;2022-08-01T13:15:42;3.50;;;2.40;;
3225;SDS011;1625;49.884;8.666;2022-08-01T13:18:22;6.17;;;2.70;;
3225;SDS011;1625;49.884;8.666;2022-08-01T13:21:11;3.30;;;2.70;;
3225;SDS011;1625;49.884;8.666;2022-08-01T13:23:42;4.23;;;2.77;;
3225;SDS011;1625;49.884;8.666;2022-08-01T13:29:21;2.10;;;1.97;;
3225;SDS011;1625;49.884;8.666;2022-08-01T13:31:54;2.50;;;2.03;;
3225;SDS011;1625;49.884;8.666;2022-08-01T13:34:29;3.20;;;2.30;;
3225;SDS011;1625;49.884;8.666;2022-08-01T13:36:58;2.23;;;2.03;;
3225;SDS011;1625;49.884;8.666;2022-08-01T13:39:26;2.20;;;2.10;;
3225;SDS011;1625;49.884;8.666;2022-08-01T13:42:05;7.73;;;2.37;;
3225;SDS011;1625;49.884;8.666;2022-08-01T13:44:31;2.13;;;1.93;;
3225;SDS011;1625;49.884;8.666;2022-08-01T13:46:56;4.93;;;2.17;;
3225;SDS011;1625;49.884;8.666;2022-08-01T13:49:22;3.20;;;2.27;;
3225;SDS011;1625;49.884;8.666;2022-08-01T13:51:47;2.30;;;2.00;;
3225;SDS011;1625;49.884;8.666;2022-08-01T13:54:15;2.73;;;2.53;;
3225;SDS011;1625;49.884;8.666;2022-08-01T13:56:41;2.90;;;1.97;;
3225;SDS011;1625;49.884;8.666;2022-08-01T13:59:06;2.27;;;1.90;;
3225;SDS011;1625;49.884;8.666;2022-08-01T14:01:32;2.00;;;1.90;;
3225;SDS011;1625;49.884;8.666;2022-08-01T14:03:58;1.83;;;1.73;;
3225;SDS011;1625;49.884;8.666;2022-08-01T14:06:24;1.97;;;1.83;;
3225;SDS011;1625;49.884;8.666;2022-08-01T14:08:50;2.10;;;1.90;;
3225;SDS011;1625;49.884;8.666;2022-08-01T14:11:16;2.10;;;2.00;;
3225;SDS011;1625;49.884;8.666;2022-08-01T14:13:42;2.17;;;1.97;;
3225;SDS011;1625;49.884;8.666;2022-08-01T14:16:08;2.00;;;1.90;;
3225;SDS011;1625;49.884;8.666;2022-08-01T14:18:33;2.30;;;2.10;;
3225;SDS011;1625;49.884;8.666;2022-08-01T14:20:59;2.20;;;2.03;;
3225;SDS011;1625;49.884;8.666;2022-08-01T14:23:25;2.90;;;2.10;;
3225;SDS011;1625;49.884;8.666;2022-08-01T14:25:51;1.87;;;1.77;;
3225;SDS011;1625;49.884;8.666;2022-08-01T14:28:17;3.33;;;2.03;;
3225;SDS011;1625;49.884;8.666;2022-08-01T14:30:43;3.10;;;2.10;;
3225;SDS011;1625;49.884;8.666;2022-08-01T14:33:09;1.83;;;1.73;;
3225;SDS011;1625;49.884;8.666;2022-08-01T14:35:35;2.57;;;2.37;;
3225;SDS011;1625;49.884;8.666;2022-08-01T14:38:01;2.33;;;2.13;;
3225;SDS011;1625;49.884;8.666;2022-08-01T14:40:27;2.53;;;1.83;;
3225;SDS011;1625;49.884;8.666;2022-08-01T14:42:52;2.90;;;2.20;;
3225;SDS011;1625;49.884;8.666;2022-08-01T14:45:18;2.00;;;1.90;;
3225;SDS011;1625;49.884;8.666;2022-08-01T14:47:44;2.23;;;2.10;;
3225;SDS011;1625;49.884;8.666;2022-08-01T14:50:11;3.07;;;2.33;;
3225;SDS011;1625;49.884;8.666;2022-08-01T14:52:38;2.20;;;1.90;;
3225;SDS011;1625;49.884;8.666;2022-08-01T14:55:05;2.60;;;2.40;;
3225;SDS011;1625;49.884;8.666;2022-08-01T14:57:32;2.10;;;1.80;;
3225;SDS011;1625;49.884;8.666;2022-08-01T14:59:58;6.30;;;2.40;;
3225;SDS011;1625;49.884;8.666;2022-08-01T15:02:24;1.90;;;1.80;;
3225;SDS011;1625;49.884;8.666;2022-08-01T15:04:50;2.27;;;2.07;;
3225;SDS011;1625;49.884;8.666;2022-08-01T15:07:16;2.60;;;1.87;;
3225;SDS011;1625;49.884;8.666;2022-08-01T15:09:42;2.03;;;1.93;;
3225;SDS011;1625;49.884;8.666;2022-08-01T15:12:08;2.87;;;2.10;;
3225;SDS011;1625;49.884;8.666;2022-08-01T15:14:34;2.57;;;2.37;;
3225;SDS011;1625;49.884;8.666;2022-08-01T15:17:25;3.10;;;2.23;;
3225;SDS011;1625;49.884;8.666;2022-08-01T15:19:57;2.50;;;2.30;;
3225;SDS011;1625;49.884;8.666;2022-08-01T15:22:24;2.80;;;2.60;;
3225;SDS011;1625;49.884;8.666;2022-08-01T15:24:51;2.00;;;1.80;;
3225;SDS011;1625;49.884;8.666;2022-08-01T15:27:18;3.37;;;2.00;;
3225;SDS011;1625;49.884;8.666;2022-08-01T15:29:44;2.33;;;2.07;;
3225;SDS011;1625;49.884;8.666;2022-08-01T15:32:10;16.20;;;3.60;;
3225;SDS011;1625;49.884;8.666;2022-08-01T15:34:36;6.37;;;3.10;;
3225;SDS011;1625;49.884;8.666;2022-08-01T15:37:03;8.23;;;4.70;;
3225;SDS011;1625;49.884;8.666;2022-08-01T15:39:29;6.23;;;4.40;;
3225;SDS011;1625;49.884;8.666;2022-08-01T15:42:00;4.60;;;3.60;;
3225;SDS011;1625;49.884;8.666;2022-08-01T15:44:28;4.80;;;2.73;;
3225;SDS011;1625;49.884;8.666;2022-08-01T15:46:54;7.77;;;3.37;;
3225;SDS011;1625;49.884;8.666;2022-08-01T15:49:19;6.60;;;3.00;;
3225;SDS011;1625;49.884;8.666;2022-08-01T15:51:47;3.07;;;2.50;;
3225;SDS011;1625;49.884;8.666;2022-08-01T15:54:14;4.87;;;2.47;;
3225;SDS011;1625;49.884;8.666;2022-08-01T15:56:40;4.40;;;2.43;;
3225;SDS011;1625;49.884;8.666;2022-08-01T15:59:05;4.07;;;2.97;;
3225;SDS011;1625;49.884;8.666;2022-08-01T16:01:31;8.63;;;2.70;;
3225;SDS011;1625;49.884;8.666;2022-08-01T16:03:57;3.10;;;2.43;;
3225;SDS011;1625;49.884;8.666;2022-08-01T16:06:23;3.53;;;2.97;;
3225;SDS011;1625;49.884;8.666;2022-08-01T16:08:49;5.10;;;2.67;;
3225;SDS011;1625;49.884;8.666;2022-08-01T16:11:15;4.13;;;2.87;;
3225;SDS011;1625;49.884;8.666;2022-08-01T16:13:43;4.93;;;3.03;;
3225;SDS011;1625;49.884;8.666;2022-08-01T16:16:09;3.97;;;2.90;;
3225;SDS011;1625;49.884;8.666;2022-08-01T16:18:35;3.30;;;3.00;;
3225;SDS011;1625;49.884;8.666;2022-08-01T16:21:01;2.17;;;1.97;;
3225;SDS011;1625;49.884;8.666;2022-08-01T16:23:28;2.47;;;2.20;;
3225;SDS011;1625;49.884;8.666;2022-08-01T16:25:54;2.70;;;2.50;;
3225;SDS011;1625;49.884;8.666;2022-08-01T16:28:20;3.17;;;2.77;;
3225;SDS011;1625;49.884;8.666;2022-08-01T16:30:45;4.80;;;3.17;;
3225;SDS011;1625;49.884;8.666;2022-08-01T16:33:11;3.00;;;2.70;;
3225;SDS011;1625;49.884;8.666;2022-08-01T16:35:37;3.20;;;2.97;;
3225;SDS011;1625;49.884;8.666;2022-08-01T16:38:04;3.30;;;3.00;;
3225;SDS011;1625;49.884;8.666;2022-08-01T16:40:30;3.77;;;3.00;;
3225;SDS011;1625;49.884;8.666;2022-08-01T16:42:57;3.93;;;3.53;;
3225;SDS011;1625;49.884;8.666;2022-08-01T16:45:22;6.07;;;3.70;;
3225;SDS011;1625;49.884;8.666;2022-08-01T16:47:48;3.93;;;3.40;;
3225;SDS011;1625;49.884;8.666;2022-08-01T16:50:13;5.00;;;3.40;;
3225;SDS011;1625;49.884;8.666;2022-08-01T16:52:39;5.80;;;4.20;;
3225;SDS011;1625;49.884;8.666;2022-08-01T16:55:05;4.30;;;3.60;;
3225;SDS011;1625;49.884;8.666;2022-08-01T16:57:31;4.10;;;3.80;;
3225;SDS011;1625;49.884;8.666;2022-08-01T17:00:04;4.30;;;4.00;;
3225;SDS011;1625;49.884;8.666;2022-08-01T17:02:32;4.23;;;3.80;;
3225;SDS011;1625;49.884;8.666;2022-08-01T17:04:58;3.40;;;3.10;;
3225;SDS011;1625;49.884;8.666;2022-08-01T17:07:23;3.70;;;3.37;;
3225;SDS011;1625;49.884;8.666;2022-08-01T17:09:49;3.60;;;3.30;;
3225;SDS011;1625;49.884;8.666;2022-08-01T17:12:15;3.40;;;3.10;;
3225;SDS011;1625;49.884;8.666;2022-08-01T17:14:40;3.77;;;3.43;;
3225;SDS011;1625;49.884;8.666;2022-08-01T17:17:06;3.90;;;3.60;;
3225;SDS011;1625;49.884;8.666;2022-08-01T17:19:32;3.30;;;3.10;;
3225;SDS011;1625;49.884;8.666;2022-08-01T17:21:57;3.87;;;3.57;;
3225;SDS011;1625;49.884;8.666;2022-08-01T17:24:23;4.00;;;3.63;;
3225;SDS011;1625;49.884;8.666;2022-08-01T17:26:48;4.13;;;3.83;;
3225;SDS011;1625;49.884;8.666;2022-08-01T17:29:14;4.47;;;3.90;;
3225;SDS011;1625;49.884;8.666;2022-08-01T17:31:40;3.97;;;3.67;;
3225;SDS011;1625;49.884;8.666;2022-08-01T17:34:07;3.97;;;3.63;;
3225;SDS011;1625;49.884;8.666;2022-08-01T17:36:32;3.97;;;3.67;;
3225;SDS011;1625;49.884;8.666;2022-08-01T17:38:58;5.10;;;4.70;;
3225;SDS011;1625;49.884;8.666;2022-08-01T17:41:23;4.90;;;4.40;;
3225;SDS011;1625;49.884;8.666;2022-08-01T17:43:49;7.53;;;5.27;;
3225;SDS011;1625;49.884;8.666;2022-08-01T17:46:15;5.37;;;4.90;;
3225;SDS011;1625;49.884;8.666;2022-08-01T17:48:41;6.50;;;5.80;;
3225;SDS011;1625;49.884;8.666;2022-08-01T17:51:08;5.83;;;5.37;;
3225;SDS011;1625;49.884;8.666;2022-08-01T17:53:33;6.33;;;5.83;;
3225;SDS011;1625;49.884;8.666;2022-08-01T17:55:59;5.20;;;4.80;;
3225;SDS011;1625;49.884;8.666;2022-08-01T17:58:26;4.50;;;4.10;;
3225;SDS011;1625;49.884;8.666;2022-08-01T18:00:52;4.70;;;4.30;;
3225;SDS011;1625;49.884;8.666;2022-08-01T18:03:18;4.10;;;3.70;;
3225;SDS011;1625;49.884;8.666;2022-08-01T18:05:43;4.20;;;3.90;;
3225;SDS011;1625;49.884;8.666;2022-08-01T18:08:10;4.97;;;4.57;;
3225;SDS011;1625;49.884;8.666;2022-08-01T18:10:36;4.10;;;3.80;;
3225;SDS011;1625;49.884;8.666;2022-08-01T18:13:01;3.93;;;3.63;;
3225;SDS011;1625;49.884;8.666;2022-08-01T18:15:28;4.27;;;3.97;;
3225;SDS011;1625;49.884;8.666;2022-08-01T18:17:53;4.50;;;4.10;;
3225;SDS011;1625;49.884;8.666;2022-08-01T18:20:21;4.30;;;4.07;;
3225;SDS011;1625;49.884;8.666;2022-08-01T18:22:47;4.70;;;4.13;;
3225;SDS011;1625;49.884;8.666;2022-08-01T18:25:13;4.53;;;4.23;;
3225;SDS011;1625;49.884;8.666;2022-08-01T18:27:38;4.47;;;4.17;;
3225;SDS011;1625;49.884;8.666;2022-08-01T18:30:04;4.40;;;4.10;;
3225;SDS011;1625;49.884;8.666;2022-08-01T18:32:30;4.10;;;3.70;;
3225;SDS011;1625;49.884;8.666;2022-08-01T18:34:56;4.70;;;4.30;;
3225;SDS011;1625;49.884;8.666;2022-08-01T18:37:22;5.20;;;4.80;;
3225;SDS011;1625;49.884;8.666;2022-08-01T18:39:47;4.90;;;4.50;;
3225;SDS011;1625;49.884;8.666;2022-08-01T18:42:14;5.97;;;5.47;;
3225;SDS011;1625;49.884;8.666;2022-08-01T18:44:40;6.50;;;5.43;;
3225;SDS011;1625;49.884;8.666;2022-08-01T18:47:05;6.03;;;5.50;;
3225;SDS011;1625;49.884;8.666;2022-08-01T18:49:31;6.80;;;6.20;;
3225;SDS011;1625;49.884;8.666;2022-08-01T18:51:56;5.60;;;5.10;;
3225;SDS011;1625;49.884;8.666;2022-08-01T18:54:22;7.17;;;6.10;;
3225;SDS011;1625;49.884;8.666;2022-08-01T18:56:49;6.30;;;5.80;;
3225;SDS011;1625;49.884;8.666;2022-08-01T18:59:15;6.23;;;5.70;;
3225;SDS011;1625;49.884;8.666;2022-08-01T19:01:40;6.33;;;5.70;;
3225;SDS011;1625;49.884;8.666;2022-08-01T19:04:06;6.60;;;6.00;;
3225;SDS011;1625;49.884;8.666;2022-08-01T19:06:32;5.90;;;5.40;;
3225;SDS011;1625;49.884;8.666;2022-08-01T19:08:58;6.17;;;5.57;;
3225;SDS011;1625;49.884;8.666;2022-08-01T19:11:25;6.73;;;6.10;;
3225;SDS011;1625;49.884;8.666;2022-08-01T19:13:50;7.93;;;6.30;;
3225;SDS011;1625;49.884;8.666;2022-08-01T19:16:16;7.13;;;6.50;;
3225;SDS011;1625;49.884;8.666;2022-08-01T19:18:42;6.90;;;6.20;;
3225;SDS011;1625;49.884;8.666;2022-08-01T19:21:08;8.83;;;8.03;;
3225;SDS011;1625;49.884;8.666;2022-08-01T19:23:34;7.47;;;6.87;;
3225;SDS011;1625;49.884;8.666;2022-08-01T19:26:19;7.10;;;6.50;;
3225;SDS011;1625;49.884;8.666;2022-08-01T19:28:50;7.53;;;6.87;;
3225;SDS011;1625;49.884;8.666;2022-08-01T19:31:18;7.80;;;7.10;;
3225;SDS011;1625;49.884;8.666;2022-08-01T19:33:50;7.30;;;6.70;;
3225;SDS011;1625;49.884;8.666;2022-08-01T19:36:17;7.43;;;6.90;;
3225;SDS011;1625;49.884;8.666;2022-08-01T19:38:43;7.70;;;6.87;;
3225;SDS011;1625;49.884;8.666;2022-08-01T19:41:10;8.07;;;7.40;;
3225;SDS011;1625;49.884;8.666;2022-08-01T19:43:38;7.27;;;6.57;;
3225;SDS011;1625;49.884;8.666;2022-08-01T19:46:04;7.40;;;6.80;;
3225;SDS011;1625;49.884;8.666;2022-08-01T19:48:31;8.37;;;7.77;;
3225;SDS011;1625;49.884;8.666;2022-08-01T19:50:59;8.60;;;7.90;;
3225;SDS011;1625;49.884;8.666;2022-08-01T19:53:29;9.47;;;8.10;;
3225;SDS011;1625;49.884;8.666;2022-08-01T19:56:00;8.67;;;7.97;;
3225;SDS011;1625;49.884;8.666;2022-08-01T19:58:27;8.60;;;7.90;;
3225;SDS011;1625;49.884;8.666;2022-08-01T20:00:53;8.87;;;8.07;;
3225;SDS011;1625;49.884;8.666;2022-08-01T20:03:19;9.03;;;8.23;;
3225;SDS011;1625;49.884;8.666;2022-08-01T20:05:46;8.47;;;7.67;;
3225;SDS011;1625;49.884;8.666;2022-08-01T20:08:12;9.60;;;8.70;;
3225;SDS011;1625;49.884;8.666;2022-08-01T20:10:39;9.00;;;8.20;;
3225;SDS011;1625;49.884;8.666;2022-08-01T20:13:05;9.27;;;8.37;;
3225;SDS011;1625;49.884;8.666;2022-08-01T20:15:31;8.70;;;7.90;;
3225;SDS011;1625;49.884;8.666;2022-08-01T20:17:57;8.67;;;7.93;;
3225;SDS011;1625;49.884;8.666;2022-08-01T20:20:23;9.03;;;8.30;;
3225;SDS011;1625;49.884;8.666;2022-08-01T20:22:49;8.77;;;7.97;;
3225;SDS011;1625;49.884;8.666;2022-08-01T20:25:19;9.23;;;8.53;;
3225;SDS011;1625;49.884;8.666;2022-08-01T20:27:46;8.70;;;8.00;;
3225;SDS011;1625;49.884;8.666;2022-08-01T20:30:12;8.97;;;8.27;;
3225;SDS011;1625;49.884;8.666;2022-08-01T20:32:38;8.97;;;8.27;;
3225;SDS011;1625;49.884;8.666;2022-08-01T20:35:04;9.30;;;8.37;;
3225;SDS011;1625;49.884;8.666;2022-08-01T20:37:32;9.90;;;8.90;;
3225;SDS011;1625;49.884;8.666;2022-08-01T20:40:03;8.30;;;7.70;;
3225;SDS011;1625;49.884;8.666;2022-08-01T20:42:30;8.93;;;8.23;;
3225;SDS011;1625;49.884;8.666;2022-08-01T20:44:55;8.33;;;7.70;;
3225;SDS011;1625;49.884;8.666;2022-08-01T20:47:25;8.90;;;8.10;;
3225;SDS011;1625;49.884;8.666;2022-08-01T20:49:51;8.47;;;7.73;;
3225;SDS011;1625;49.884;8.666;2022-08-01T20:52:43;8.67;;;7.97;;
3225;SDS011;1625;49.884;8.666;2022-08-01T20:55:10;7.57;;;7.07;;
3225;SDS011;1625;49.884;8.666;2022-08-01T20:57:35;8.40;;;7.80;;
3225;SDS011;1625;49.884;8.666;2022-08-01T21:00:04;7.87;;;7.20;;
3225;SDS011;1625;49.884;8.666;2022-08-01T21:05:28;8.57;;;7.87;;
3225;SDS011;1625;49.884;8.666;2022-08-01T21:08:16;9.40;;;8.70;;
3225;SDS011;1625;49.884;8.666;2022-08-01T21:10:47;9.73;;;8.83;;
3225;SDS011;1625;49.884;8.666;2022-08-01T21:13:22;9.20;;;8.50;;
3225;SDS011;1625;49.884;8.666;2022-08-01T21:16:02;8.97;;;8.27;;
3225;SDS011;1625;49.884;8.666;2022-08-01T21:18:38;8.60;;;7.90;;
3225;SDS011;1625;49.884;8.666;2022-08-01T21:21:19;9.47;;;8.60;;
3225;SDS011;1625;49.884;8.666;2022-08-01T21:23:59;9.53;;;8.73;;
3225;SDS011;1625;49.884;8.666;2022-08-01T21:26:38;10.03;;;9.13;;
3225;SDS011;1625;49.884;8.666;2022-08-01T21:29:07;9.70;;;8.90;;
3225;SDS011;1625;49.884;8.666;2022-08-01T21:31:35;10.80;;;9.90;;